Time;durP1;ratioP1;P1;durP2;ratioP2;P2;SDS_P1;SDS_P2;PMS_P1;PMS_P2;Temp;Humidity;BMP_temperature;BMP_pressure;BME280_temperature;BME280_humidity;BME280_pressure;Samples;Min_cycle;Max_cycle;Signal;HPM_P1;HPM_P2
2022/01/06 00:00:32;;;;;;;;;44.25;39.75;;;;;1.85;82.46;101456.75;5101940;27;45325;-76
2022/01/06 00:02:57;;;;;;;;;46.50;39.25;;;;;1.86;82.76;101463.66;5100817;27;45257;-76
2022/01/06 00:05:23;;;;;;;;;44.00;40.25;;;;;1.80;82.68;101458.84;5101502;27;45222;-76
2022/01/06 00:07:48;;;;;;;;;46.50;41.50;;;;;1.74;82.76;101452.19;5101837;27;46151;-77
2022/01/06 00:10:14;;;;;;;;;45.75;39.00;;;;;1.77;82.25;101461.66;5101851;27;45280;-76
2022/01/06 00:12:50;;;;;;;;;42.25;38.50;;;;;1.72;82.26;101453.25;5101996;27;45322;-76
2022/01/06 00:23:38;;;;;;;;;39.75;37.50;;;;;1.58;82.37;101434.00;5101758;27;45323;-77
2022/01/06 00:26:03;;;;;;;;;44.75;39.00;;;;;1.71;82.65;101454.19;5101481;27;45185;-76
2022/01/06 00:28:29;;;;;;;;;45.50;41.00;;;;;1.70;83.50;101453.34;5101255;27;45346;-76
2022/01/06 00:30:54;;;;;;;;;41.50;36.75;;;;;1.71;82.39;101443.69;5100100;27;45256;-76
2022/01/06 00:33:20;;;;;;;;;45.50;41.00;;;;;1.65;83.10;101437.09;5101474;27;45199;-76
2022/01/06 00:35:46;;;;;;;;;39.75;35.75;;;;;1.64;83.17;101446.72;5099962;27;46235;-77
2022/01/06 00:38:11;;;;;;;;;39.00;35.75;;;;;1.69;83.03;101456.91;5086093;27;45311;-77
2022/01/06 00:40:37;;;;;;;;;34.75;34.00;;;;;1.66;83.13;101448.38;5080796;27;45313;-77
2022/01/06 00:43:05;;;;;;;;;46.00;40.00;;;;;1.68;82.80;101457.00;5081018;28;45298;-77
2022/01/06 00:45:32;;;;;;;;;40.75;39.25;;;;;1.62;83.24;101472.16;5080689;27;45237;-77
2022/01/06 00:47:57;;;;;;;;;42.00;37.50;;;;;1.59;83.11;101467.13;5080569;27;45305;-76
2022/01/06 00:50:24;;;;;;;;;36.50;34.50;;;;;1.49;83.15;101453.75;5079058;28;45294;-76
2022/01/06 00:52:49;;;;;;;;;42.50;37.75;;;;;1.55;82.91;101463.00;5079640;28;45282;-78
2022/01/06 00:55:15;;;;;;;;;38.00;34.75;;;;;1.51;82.50;101459.75;5079035;28;47126;-77
2022/01/06 00:57:41;;;;;;;;;36.25;36.00;;;;;1.57;82.79;101481.25;5080610;27;45333;-77
2022/01/06 01:00:08;;;;;;;;;37.75;30.50;;;;;1.57;82.95;101478.63;5080460;27;45312;-76
2022/01/06 01:02:33;;;;;;;;;32.25;30.25;;;;;1.41;83.57;101461.28;5080813;27;45290;-77
2022/01/06 01:04:58;;;;;;;;;39.00;33.75;;;;;1.48;83.19;101469.59;5080107;27;45255;-77
2022/01/06 01:07:24;;;;;;;;;37.75;34.00;;;;;1.48;83.24;101475.69;5080425;27;46309;-78
2022/01/06 01:09:49;;;;;;;;;39.75;38.25;;;;;1.54;83.42;101486.69;5078831;28;45288;-76
2022/01/06 01:12:14;;;;;;;;;37.25;33.25;;;;;1.31;83.27;101458.38;5080535;27;45596;-76
2022/01/06 01:17:45;;;;;;;;;42.50;37.00;;;;;1.37;83.03;101459.78;5077953;28;45947;-77
2022/01/06 01:20:10;;;;;;;;;39.75;36.25;;;;;1.45;83.05;101468.00;5077628;28;45414;-77
2022/01/06 01:22:36;;;;;;;;;34.75;32.50;;;;;1.53;83.37;101485.03;5079007;27;45686;-76
2022/01/06 01:25:01;;;;;;;;;35.25;34.75;;;;;1.45;82.52;101480.25;5080077;27;45439;-77
2022/01/06 01:27:31;;;;;;;;;54.25;39.50;;;;;1.31;83.17;101463.63;5080184;27;46096;-77
2022/01/06 01:30:04;;;;;;;;;49.25;41.75;;;;;1.39;83.28;101478.88;5079957;27;45362;-77
2022/01/06 01:32:34;;;;;;;;;56.50;43.50;;;;;1.43;82.90;101488.22;5080326;28;45444;-77
2022/01/06 01:35:01;;;;;;;;;48.25;43.50;;;;;1.41;83.35;101490.09;5079985;27;45309;-77
2022/01/06 01:37:31;;;;;;;;;57.25;47.25;;;;;1.36;82.76;101473.81;5088435;27;45262;-77
2022/01/06 01:39:58;;;;;;;;;44.00;38.75;;;;;1.43;82.98;101493.44;5100306;27;45480;-77
2022/01/06 01:42:24;;;;;;;;;53.00;44.00;;;;;1.43;83.07;101487.38;5099157;27;45334;-77
2022/01/06 01:44:51;;;;;;;;;50.25;40.25;;;;;1.36;83.02;101490.38;5099006;27;46094;-77
2022/01/06 01:47:57;;;;;;;;;52.50;43.00;;;;;1.42;82.73;101497.00;5100356;27;45968;-77
2022/01/06 01:50:17;;;;;;;;;50.75;43.25;;;;;1.35;82.45;101490.47;5097492;27;45511;-77
2022/01/06 01:52:44;;;;;;;;;47.00;41.00;;;;;1.37;82.53;101499.06;5099971;27;45329;-78
2022/01/06 01:55:11;;;;;;;;;47.25;40.25;;;;;1.31;82.66;101496.81;5100217;27;45257;-77
2022/01/06 01:57:36;;;;;;;;;53.75;43.50;;;;;1.21;82.54;101492.16;5098863;27;48414;-77
2022/01/06 02:00:06;;;;;;;;;54.50;45.00;;;;;1.19;82.62;101491.41;5099990;27;45221;-77
2022/01/06 02:02:31;;;;;;;;;40.50;37.25;;;;;1.23;83.00;101502.56;5100328;27;45336;-77
2022/01/06 02:04:57;;;;;;;;;44.00;40.00;;;;;1.24;82.36;101496.38;5098340;27;46219;-77
2022/01/06 02:07:22;;;;;;;;;39.50;36.75;;;;;1.30;82.65;101511.72;5100050;27;46198;-77
2022/01/06 02:09:47;;;;;;;;;42.25;39.25;;;;;1.28;82.42;101510.94;5100015;27;45255;-77
2022/01/06 02:12:27;;;;;;;;;40.25;37.00;;;;;1.23;82.63;101492.06;5100232;27;45238;-77
2022/01/06 02:14:53;;;;;;;;;44.50;41.00;;;;;1.27;82.60;101498.81;5099947;27;45476;-77
2022/01/06 02:17:18;;;;;;;;;38.25;35.50;;;;;1.27;82.58;101514.50;5099825;27;45281;-77
2022/01/06 02:20:00;;;;;;;;;33.25;32.75;;;;;1.16;82.81;101494.22;5098571;27;45242;-77
2022/01/06 02:22:27;;;;;;;;;34.50;30.50;;;;;1.06;82.32;101477.38;5100102;27;45421;-77
2022/01/06 02:24:52;;;;;;;;;33.50;30.50;;;;;1.19;82.95;101495.78;5099785;27;45250;-77
2022/01/06 02:27:22;;;;;;;;;28.00;26.50;;;;;1.19;82.98;101501.88;5099726;27;46193;-77
2022/01/06 02:29:51;;;;;;;;;37.00;32.75;;;;;1.18;82.63;101504.59;5099712;27;45320;-77
2022/01/06 02:32:19;;;;;;;;;33.25;30.25;;;;;1.21;82.62;101507.03;5098541;27;45257;-77
2022/01/06 02:34:45;;;;;;;;;31.75;27.50;;;;;1.19;82.25;101512.34;5098054;27;46250;-77
2022/01/06 02:37:13;;;;;;;;;29.25;28.75;;;;;1.08;82.64;101499.09;5091710;27;46321;-77
2022/01/06 02:39:38;;;;;;;;;21.50;21.50;;;;;1.10;82.63;101499.81;5079275;28;45299;-76
2022/01/06 02:42:04;;;;;;;;;29.50;29.00;;;;;1.10;82.97;101489.34;5095152;27;45411;-77
2022/01/06 02:44:30;;;;;;;;;29.75;26.00;;;;;1.16;82.88;101501.25;5079231;28;45376;-77
2022/01/06 02:46:55;;;;;;;;;29.50;27.75;;;;;1.00;82.73;101482.06;5078976;28;45264;-76
2022/01/06 02:49:21;;;;;;;;;26.00;25.00;;;;;1.00;82.58;101486.47;5078941;27;45211;-76
2022/01/06 02:51:47;;;;;;;;;29.50;27.50;;;;;1.10;82.54;101505.91;5078120;28;45256;-76
2022/01/06 02:54:13;;;;;;;;;33.75;30.00;;;;;0.94;83.13;101485.06;5079167;27;45456;-76
2022/01/06 02:56:41;;;;;;;;;24.75;24.25;;;;;0.95;82.93;101497.19;5077535;28;48091;-76
2022/01/06 02:59:07;;;;;;;;;30.50;30.00;;;;;0.96;83.13;101505.91;5077541;28;45360;-76
2022/01/06 03:01:37;;;;;;;;;35.00;34.50;;;;;0.90;83.03;101509.75;5077641;28;45317;-76
2022/01/06 03:04:03;;;;;;;;;30.00;25.50;;;;;0.90;83.03;101503.66;5081142;27;45226;-76
2022/01/06 03:06:28;;;;;;;;;33.50;31.50;;;;;0.96;83.19;101517.19;5080790;28;47030;-76
2022/01/06 03:08:54;;;;;;;;;33.00;28.50;;;;;0.95;83.07;101518.16;5082426;27;45174;-76
2022/01/06 03:11:25;;;;;;;;;32.50;32.25;;;;;0.95;83.09;101525.16;5081128;28;45216;-76
2022/01/06 03:13:50;;;;;;;;;31.25;29.00;;;;;1.00;83.15;101526.59;5082386;27;45375;-76
2022/01/06 03:16:16;;;;;;;;;30.75;28.00;;;;;0.88;83.52;101503.75;5080830;28;48430;-76
2022/01/06 03:18:41;;;;;;;;;32.00;27.50;;;;;0.93;82.99;101513.94;5082098;27;45136;-76
2022/01/06 03:21:06;;;;;;;;;33.25;31.00;;;;;1.08;83.52;101530.50;5082490;27;45219;-76
2022/01/06 03:23:32;;;;;;;;;34.50;31.50;;;;;1.08;83.13;101527.88;5082148;27;45217;-76
2022/01/06 03:25:57;;;;;;;;;33.75;29.75;;;;;1.13;82.99;101542.38;5081872;27;45289;-76
2022/01/06 03:28:22;;;;;;;;;33.75;31.75;;;;;1.06;83.54;101529.75;5080598;28;45223;-76
2022/01/06 03:30:48;;;;;;;;;33.50;29.50;;;;;1.22;83.65;101545.38;5082257;27;45168;-76
2022/01/06 03:33:13;;;;;;;;;29.50;29.25;;;;;1.26;83.59;101544.28;5081838;27;45500;-76
2022/01/06 03:35:38;;;;;;;;;34.00;34.00;;;;;1.29;83.30;101551.94;5082007;27;46208;-77
2022/01/06 03:38:04;;;;;;;;;39.00;34.50;;;;;1.31;83.14;101549.22;5094221;27;45930;-76
2022/01/06 03:40:29;;;;;;;;;33.75;33.50;;;;;1.39;83.13;101552.22;5101107;27;45251;-76
2022/01/06 03:42:55;;;;;;;;;27.75;27.75;;;;;1.39;82.77;101533.88;5101007;27;46406;-76
2022/01/06 03:45:20;;;;;;;;;28.00;25.00;;;;;1.36;83.18;101529.69;5102120;27;46306;-76
2022/01/06 03:47:46;;;;;;;;;30.00;27.50;;;;;1.45;83.66;101533.50;5102296;27;45363;-76
2022/01/06 03:50:13;;;;;;;;;36.50;31.50;;;;;1.47;83.74;101546.50;5100596;27;45350;-77
2022/01/06 03:52:39;;;;;;;;;30.00;30.00;;;;;1.52;83.81;101554.91;5102243;27;45461;-77
2022/01/06 03:55:08;;;;;;;;;27.50;25.25;;;;;1.47;83.67;101547.34;5101891;27;45947;-77
2022/01/06 03:57:34;;;;;;;;;38.00;34.25;;;;;1.43;83.58;101548.47;5100842;27;45532;-77
2022/01/06 04:00:00;;;;;;;;;30.75;28.25;;;;;1.48;83.42;101567.38;5100810;27;45450;-76
2022/01/06 04:02:25;;;;;;;;;32.75;30.50;;;;;1.37;83.58;101549.69;5100522;27;46164;-76
2022/01/06 04:04:51;;;;;;;;;38.00;36.00;;;;;1.31;82.73;101547.44;5100303;27;48048;-77
2022/01/06 04:07:16;;;;;;;;;28.25;26.50;;;;;1.36;83.14;101561.13;5101925;27;45295;-76
2022/01/06 04:09:41;;;;;;;;;27.50;26.25;;;;;1.24;83.30;101541.75;5100228;27;45356;-77
2022/01/06 04:12:10;;;;;;;;;32.50;31.00;;;;;1.30;82.80;101545.75;5101833;27;45488;-76
2022/01/06 04:14:35;;;;;;;;;27.00;26.50;;;;;1.35;82.67;101548.94;5101178;27;46151;-76
2022/01/06 04:17:01;;;;;;;;;30.00;27.00;;;;;1.40;83.23;101550.44;5101758;27;45277;-76
2022/01/06 04:19:27;;;;;;;;;32.75;28.75;;;;;1.42;83.11;101559.88;5101750;27;45281;-76
2022/01/06 04:21:53;;;;;;;;;27.25;26.00;;;;;1.30;83.28;101535.28;5101598;27;45598;-76
2022/01/06 04:24:18;;;;;;;;;30.00;25.50;;;;;1.42;83.50;101546.78;5100356;27;47114;-77
2022/01/06 04:26:43;;;;;;;;;30.00;27.25;;;;;1.40;83.22;101566.16;5101545;27;45184;-76
2022/01/06 04:29:09;;;;;;;;;26.50;25.00;;;;;1.35;83.61;101572.50;5101507;27;45161;-77
2022/01/06 04:31:34;;;;;;;;;31.25;30.25;;;;;1.33;83.35;101569.16;5101678;27;45429;-77
2022/01/06 04:34:00;;;;;;;;;30.75;28.25;;;;;1.22;83.34;101551.47;5101214;27;46285;-76
2022/01/06 04:36:25;;;;;;;;;23.50;22.75;;;;;1.30;83.02;101571.97;5101643;27;45425;-76
2022/01/06 04:38:50;;;;;;;;;28.50;28.50;;;;;1.30;83.57;101571.97;5060904;28;45429;-76
2022/01/06 04:41:16;;;;;;;;;28.00;27.25;;;;;1.18;83.38;101556.97;5060510;28;45349;-76
2022/01/06 04:43:41;;;;;;;;;31.25;27.00;;;;;1.22;83.62;101568.94;5059161;28;47063;-77
2022/01/06 04:46:06;;;;;;;;;31.50;29.50;;;;;1.19;83.42;101564.75;5076308;28;45355;-76
2022/01/06 04:48:35;;;;;;;;;26.75;26.50;;;;;1.28;83.79;101580.84;5059245;28;45869;-76
2022/01/06 04:51:00;;;;;;;;;29.25;23.50;;;;;1.25;82.44;101581.84;5059145;28;46223;-76
2022/01/06 04:53:25;;;;;;;;;26.50;24.75;;;;;1.19;83.13;101572.59;5060307;28;45307;-76
2022/01/06 04:55:51;;;;;;;;;26.50;24.75;;;;;1.18;82.93;101578.78;5060599;28;45227;-76
2022/01/06 04:58:17;;;;;;;;;28.00;26.00;;;;;1.12;83.22;101580.00;5060436;28;45513;-76
2022/01/06 05:00:42;;;;;;;;;25.50;24.50;;;;;1.21;82.85;101588.22;5060381;28;45298;-76
2022/01/06 05:03:07;;;;;;;;;30.00;26.50;;;;;1.16;82.92;101578.00;5060055;28;45215;-76
2022/01/06 05:05:33;;;;;;;;;26.25;25.25;;;;;1.19;83.05;101579.59;5060228;28;45283;-76
2022/01/06 05:07:58;;;;;;;;;32.00;28.00;;;;;1.23;82.84;101581.13;5060518;28;45252;-77
2022/01/06 05:10:23;;;;;;;;;31.25;27.00;;;;;1.19;82.88;101567.34;5060109;28;45203;-76
2022/01/06 05:12:49;;;;;;;;;30.00;28.50;;;;;1.32;83.31;101579.72;5060130;28;45224;-76
2022/01/06 05:15:14;;;;;;;;;33.00;29.25;;;;;1.25;82.97;101577.47;5060092;28;45281;-76
2022/01/06 05:17:41;;;;;;;;;32.50;30.75;;;;;1.23;82.92;101568.03;5060286;28;45196;-76
2022/01/06 05:20:08;;;;;;;;;30.00;29.50;;;;;1.20;83.19;101566.41;5060000;28;45286;-76
2022/01/06 05:22:36;;;;;;;;;27.00;23.25;;;;;1.20;82.89;101565.59;5059696;28;45288;-76
2022/01/06 05:25:01;;;;;;;;;28.25;26.00;;;;;1.35;83.20;101585.59;5059507;28;45220;-76
2022/01/06 05:27:26;;;;;;;;;33.75;27.50;;;;;1.29;83.09;101591.25;5074758;28;45460;-76
2022/01/06 05:29:52;;;;;;;;;25.50;21.00;;;;;1.22;83.26;101582.03;5059856;28;45513;-76
2022/01/06 05:32:18;;;;;;;;;27.00;26.25;;;;;1.31;83.65;101604.22;5075491;28;48164;-76
2022/01/06 05:34:43;;;;;;;;;31.50;29.50;;;;;1.31;83.39;101596.34;5059661;28;45267;-76
2022/01/06 05:37:09;;;;;;;;;22.00;22.00;;;;;1.36;83.16;101608.28;5071990;27;45202;-76
2022/01/06 05:39:34;;;;;;;;;31.25;28.75;;;;;1.36;83.31;101605.66;5100440;27;45519;-76
2022/01/06 05:42:00;;;;;;;;;31.00;27.00;;;;;1.31;82.86;101604.22;5099126;27;48292;-76
2022/01/06 05:44:26;;;;;;;;;28.00;27.50;;;;;1.33;83.45;101618.94;5099078;27;45433;-78
2022/01/06 05:46:51;;;;;;;;;30.50;28.50;;;;;1.17;83.37;101595.41;5100600;27;45444;-77
2022/01/06 05:49:17;;;;;;;;;26.00;25.25;;;;;1.28;83.21;101607.88;5100038;27;45471;-77
2022/01/06 05:51:43;;;;;;;;;26.75;26.25;;;;;1.41;83.25;101617.63;5100284;27;46394;-77
2022/01/06 05:54:09;;;;;;;;;25.00;24.25;;;;;1.45;83.84;101619.97;5100410;27;45328;-77
2022/01/06 05:56:34;;;;;;;;;22.25;21.00;;;;;1.41;83.78;101607.13;5100400;27;45377;-78
2022/01/06 05:58:59;;;;;;;;;24.25;21.25;;;;;1.40;83.23;101597.59;5099974;27;45604;-77
2022/01/06 06:01:25;;;;;;;;;29.50;27.75;;;;;1.46;83.41;101619.03;5100159;27;45302;-77
2022/01/06 06:03:50;;;;;;;;;28.75;28.50;;;;;1.50;83.66;101620.50;5100007;27;45321;-78
2022/01/06 06:06:16;;;;;;;;;27.00;25.00;;;;;1.56;84.01;101621.09;5100311;27;45209;-77
2022/01/06 06:08:41;;;;;;;;;29.75;26.00;;;;;1.55;84.01;101614.19;5100000;27;45228;-77
2022/01/06 06:11:07;;;;;;;;;26.00;23.00;;;;;1.59;84.03;101632.22;5100016;27;45277;-77
2022/01/06 06:13:33;;;;;;;;;28.50;28.50;;;;;1.64;84.00;101629.31;5100017;27;45282;-78
2022/01/06 06:15:58;;;;;;;;;26.00;24.25;;;;;1.61;84.09;101624.25;5100189;27;45227;-78
2022/01/06 06:18:23;;;;;;;;;31.00;31.00;;;;;1.68;84.29;101628.22;5098627;27;46348;-78
2022/01/06 06:20:49;;;;;;;;;28.50;27.00;;;;;1.75;83.78;101626.03;5098475;27;46966;-77
2022/01/06 06:23:15;;;;;;;;;30.00;27.25;;;;;1.82;83.92;101632.59;5099873;27;45293;-78
2022/01/06 06:25:40;;;;;;;;;31.00;30.50;;;;;1.48;83.26;101574.38;5099880;27;45287;-78
2022/01/06 06:28:07;;;;;;;;;31.75;30.00;;;;;1.90;83.43;101640.00;5099891;27;45293;-78
2022/01/06 06:30:32;;;;;;;;;30.50;29.75;;;;;1.94;83.36;101653.78;5099742;27;46011;-79
2022/01/06 06:33:00;;;;;;;;;51.00;44.50;;;;;1.93;83.97;101655.53;5098592;27;45421;-79
2022/01/06 06:35:25;;;;;;;;;41.00;38.25;;;;;1.94;83.70;101645.91;5100132;27;45402;-79
2022/01/06 06:37:50;;;;;;;;;40.50;38.50;;;;;1.98;83.42;101650.00;5088020;27;45922;-79
2022/01/06 06:40:16;;;;;;;;;33.25;33.00;;;;;1.91;83.42;101643.47;5081279;28;47172;-79
2022/01/06 06:42:42;;;;;;;;;35.00;31.25;;;;;2.02;83.98;101662.00;5082780;27;45261;-79
2022/01/06 06:45:08;;;;;;;;;31.00;30.50;;;;;2.01;83.82;101657.69;5082734;27;45594;-79
2022/01/06 06:47:33;;;;;;;;;33.75;32.00;;;;;1.98;83.01;101656.06;5070159;27;45415;-79
2022/01/06 06:49:59;;;;;;;;;28.00;26.25;;;;;1.96;83.05;101657.13;5069753;27;46282;-80
2022/01/06 06:52:26;;;;;;;;;28.50;28.50;;;;;1.96;83.42;101663.22;5081446;28;45715;-80
2022/01/06 06:54:53;;;;;;;;;39.50;35.00;;;;;1.86;83.71;101647.19;5082862;27;45433;-80
2022/01/06 06:57:19;;;;;;;;;27.00;26.25;;;;;1.92;83.40;101658.25;5082461;27;45551;-79
2022/01/06 06:59:44;;;;;;;;;31.00;29.75;;;;;1.88;82.82;101649.72;5082304;27;46360;-80
2022/01/06 07:02:10;;;;;;;;;34.00;29.00;;;;;1.93;83.61;101655.53;5081307;28;45361;-79
2022/01/06 07:04:35;;;;;;;;;33.00;30.25;;;;;1.91;83.78;101654.78;5082501;27;45345;-78
2022/01/06 07:07:00;;;;;;;;;22.00;19.00;;;;;1.99;83.05;101662.16;5082412;27;45254;-79
2022/01/06 07:09:26;;;;;;;;;40.25;34.00;;;;;2.02;83.61;101662.00;5080919;28;48147;-79
2022/01/06 07:11:51;;;;;;;;;31.50;30.75;;;;;2.02;83.09;101656.75;5082319;27;45225;-79
2022/01/06 07:14:16;;;;;;;;;31.00;30.25;;;;;2.11;83.21;101671.91;5082488;27;45333;-79
2022/01/06 07:16:42;;;;;;;;;35.25;35.25;;;;;1.95;83.61;101655.44;5080952;28;47212;-80
2022/01/06 07:19:07;;;;;;;;;37.00;36.25;;;;;2.06;83.25;101668.72;5081906;27;45317;-79
2022/01/06 07:21:32;;;;;;;;;30.50;30.25;;;;;2.12;83.63;101683.22;5082364;27;45264;-79
2022/01/06 07:23:58;;;;;;;;;42.00;36.25;;;;;2.07;83.40;101667.81;5082283;27;45230;-79
2022/01/06 07:26:23;;;;;;;;;34.00;34.00;;;;;2.13;83.41;101674.44;5082039;27;45460;-79
2022/01/06 07:28:48;;;;;;;;;36.50;34.00;;;;;2.18;83.61;101684.66;5080569;28;47012;-79
2022/01/06 07:31:14;;;;;;;;;36.75;35.00;;;;;2.23;83.85;101693.91;5082107;27;45266;-80
2022/01/06 07:33:39;;;;;;;;;35.00;34.00;;;;;1.93;83.61;101644.19;5080611;28;45632;-79
2022/01/06 07:36:05;;;;;;;;;37.75;36.25;;;;;2.14;83.85;101676.97;5081959;27;45212;-78
2022/01/06 07:38:30;;;;;;;;;31.50;31.50;;;;;2.15;83.93;101680.41;5099436;27;46279;-79
2022/01/06 07:40:56;;;;;;;;;38.75;36.75;;;;;2.24;83.51;101698.22;5102385;27;45319;-78
2022/01/06 07:43:22;;;;;;;;;50.25;43.00;;;;;2.29;83.10;101691.81;5102279;27;45341;-78
2022/01/06 07:45:49;;;;;;;;;48.75;41.50;;;;;2.22;83.83;101680.88;5102317;27;45348;-77
2022/01/06 07:48:17;;;;;;;;;49.25;40.25;;;;;2.30;83.34;101683.88;5101528;27;46145;-78
2022/01/06 07:50:43;;;;;;;;;49.50;40.50;;;;;2.39;83.35;101690.31;5092905;27;45157;-78
2022/01/06 07:53:09;;;;;;;;;47.25;42.25;;;;;2.37;83.38;101689.56;5080571;27;45314;-77
2022/01/06 07:55:35;;;;;;;;;62.00;50.50;;;;;2.29;83.50;101676.94;5084407;28;46271;-76
2022/01/06 07:58:01;;;;;;;;;46.50;40.50;;;;;2.30;83.59;101689.09;5083066;27;45370;-77
2022/01/06 08:00:27;;;;;;;;;42.75;39.25;;;;;2.39;84.20;101701.66;5082821;27;45274;-77
2022/01/06 08:02:52;;;;;;;;;43.25;39.75;;;;;2.44;83.20;101701.38;5081236;27;45667;-76
2022/01/06 08:05:20;;;;;;;;;43.75;39.75;;;;;2.46;83.66;101696.03;5081600;27;45391;-77
2022/01/06 08:07:45;;;;;;;;;44.75;40.25;;;;;2.47;83.08;101697.69;5097120;27;47446;-77
2022/01/06 08:10:11;;;;;;;;;46.00;40.75;;;;;2.46;83.52;101694.25;5081467;28;45417;-77
2022/01/06 08:12:37;;;;;;;;;45.25;39.50;;;;;2.46;83.78;101693.41;5083348;27;45410;-78
2022/01/06 08:15:04;;;;;;;;;43.25;39.75;;;;;2.54;83.03;101706.03;5083094;28;45338;-77
2022/01/06 08:17:29;;;;;;;;;47.25;41.75;;;;;2.60;83.90;101705.66;5083606;27;45231;-77
2022/01/06 08:19:54;;;;;;;;;53.25;45.00;;;;;2.64;84.05;101710.59;5082679;28;45717;-77
2022/01/06 08:22:20;;;;;;;;;44.75;39.50;;;;;2.63;83.94;101697.56;5084700;27;45213;-77
2022/01/06 08:24:45;;;;;;;;;52.50;44.75;;;;;2.67;82.78;101696.44;5077533;27;45682;-76
2022/01/06 08:27:11;;;;;;;;;56.50;45.00;;;;;2.71;82.95;101697.94;5086586;27;45262;-77
2022/01/06 08:29:38;;;;;;;;;53.25;44.50;;;;;2.78;83.42;101707.09;5091156;27;45318;-77
2022/01/06 08:32:04;;;;;;;;;54.00;46.50;;;;;2.74;83.55;101702.13;5088588;27;45298;-78
2022/01/06 08:34:29;;;;;;;;;53.75;43.75;;;;;2.80;83.58;101708.75;5102314;27;47899;-78
2022/01/06 08:36:55;;;;;;;;;61.75;52.00;;;;;2.75;83.51;101688.06;5094373;27;45384;-76
2022/01/06 08:39:21;;;;;;;;;52.00;43.00;;;;;2.79;83.81;101702.69;5081983;27;45432;-77
2022/01/06 08:41:47;;;;;;;;;56.75;48.00;;;;;2.87;84.31;101705.66;5085029;28;45274;-77
2022/01/06 08:44:12;;;;;;;;;61.50;51.00;;;;;2.90;83.35;101704.59;5068162;28;46212;-77
2022/01/06 08:46:38;;;;;;;;;62.50;50.75;;;;;3.05;83.14;101715.06;5074336;28;45256;-76
2022/01/06 08:49:06;;;;;;;;;62.00;49.50;;;;;3.08;83.83;101720.13;5075102;28;45153;-76
2022/01/06 08:51:31;;;;;;;;;65.00;51.75;;;;;3.09;84.19;101720.03;5071762;28;45294;-76
2022/01/06 08:53:57;;;;;;;;;63.50;49.75;;;;;3.18;83.70;101722.97;5077702;28;45265;-77
2022/01/06 08:56:22;;;;;;;;;58.75;48.75;;;;;3.15;84.00;101708.25;5068302;28;45389;-77
2022/01/06 08:58:47;;;;;;;;;58.00;48.75;;;;;3.21;83.81;101720.16;5061310;28;45353;-77
2022/01/06 09:01:13;;;;;;;;;62.75;52.50;;;;;3.13;83.14;101700.47;5061007;28;45267;-76
2022/01/06 09:03:38;;;;;;;;;67.25;55.00;;;;;3.25;84.09;101704.06;5060149;28;45338;-77
2022/01/06 09:06:03;;;;;;;;;67.00;53.50;;;;;3.32;84.03;101701.03;5060225;28;47116;-77
2022/01/06 09:08:29;;;;;;;;;66.00;53.25;;;;;3.41;83.85;101721.44;5061760;28;45427;-76
2022/01/06 09:10:54;;;;;;;;;61.00;50.25;;;;;3.43;83.78;101731.84;5077337;28;44772;-76
2022/01/06 09:13:20;;;;;;;;;58.75;47.00;;;;;3.40;83.59;101727.63;5081032;28;45284;-78
2022/01/06 09:15:45;;;;;;;;;55.25;47.00;;;;;3.48;84.05;101727.13;5082067;27;46315;-76
2022/01/06 09:18:11;;;;;;;;;57.50;46.50;;;;;3.51;83.44;101713.78;5080457;27;45194;-76
2022/01/06 09:20:36;;;;;;;;;56.50;47.75;;;;;3.71;83.87;101736.06;5080411;27;45227;-77
2022/01/06 09:23:02;;;;;;;;;53.75;45.25;;;;;3.72;83.80;101722.00;5080963;27;45164;-77
2022/01/06 09:25:27;;;;;;;;;53.00;44.75;;;;;3.77;83.66;101717.25;5079951;27;45950;-77
2022/01/06 09:27:54;;;;;;;;;64.25;52.25;;;;;3.95;83.73;101737.97;5081110;27;45298;-76
2022/01/06 09:30:23;;;;;;;;;52.50;43.75;;;;;3.99;82.96;101734.22;5097205;27;45363;-77
2022/01/06 09:32:50;;;;;;;;;49.00;41.50;;;;;4.07;83.20;101738.09;5079898;27;45275;-76
2022/01/06 09:35:15;;;;;;;;;54.25;46.25;;;;;4.02;82.77;101726.09;5078990;27;45420;-76
2022/01/06 09:37:41;;;;;;;;;65.50;53.50;;;;;4.04;82.96;101723.34;5089725;27;45373;-76
2022/01/06 09:40:09;;;;;;;;;65.00;51.50;;;;;4.09;83.10;101726.50;5098396;27;45370;-76
2022/01/06 09:42:35;;;;;;;;;60.50;50.50;;;;;4.13;82.89;101733.22;5099747;27;45410;-76
2022/01/06 09:45:01;;;;;;;;;54.50;44.50;;;;;4.18;83.05;101730.28;5099121;27;45487;-76
2022/01/06 09:47:27;;;;;;;;;53.75;42.25;;;;;4.23;83.25;101741.34;5100385;27;45408;-77
2022/01/06 09:49:53;;;;;;;;;44.50;40.25;;;;;4.34;82.79;101748.47;5100298;27;45274;-77
2022/01/06 09:52:21;;;;;;;;;59.75;47.25;;;;;4.34;82.93;101732.66;5100061;27;45432;-77
2022/01/06 09:54:47;;;;;;;;;54.25;44.25;;;;;4.51;82.73;101760.44;5100194;27;45334;-77
2022/01/06 09:57:14;;;;;;;;;45.75;38.00;;;;;4.49;82.21;101743.91;5100193;27;45202;-77
2022/01/06 09:59:43;;;;;;;;;57.00;46.00;;;;;4.53;82.65;101734.84;5100280;27;45259;-77
2022/01/06 10:02:14;;;;;;;;;53.00;44.75;;;;;4.67;82.37;101754.91;5098780;27;45474;-76
2022/01/06 10:04:40;;;;;;;;;52.50;44.00;;;;;4.70;82.15;101750.38;5098309;27;47377;-77
2022/01/06 10:07:08;;;;;;;;;59.00;48.25;;;;;4.83;82.36;101771.41;5098818;27;45878;-77
2022/01/06 10:09:35;;;;;;;;;55.00;46.25;;;;;4.90;82.12;101770.84;5100313;27;45316;-77
2022/01/06 10:12:06;;;;;;;;;61.50;50.00;;;;;4.97;81.70;101770.41;5100861;27;45468;-77
2022/01/06 10:14:44;;;;;;;;;53.75;45.75;;;;;4.97;81.60;101758.06;5102409;27;46718;-77
2022/01/06 10:17:11;;;;;;;;;53.25;45.00;;;;;4.98;81.67;101751.84;5103663;27;45262;-77
2022/01/06 10:19:40;;;;;;;;;53.50;45.00;;;;;5.00;81.39;101757.03;5094733;27;45228;-78
2022/01/06 10:22:15;;;;;;;;;54.50;46.00;;;;;5.03;80.90;101769.97;5082351;28;45304;-77
2022/01/06 10:24:42;;;;;;;;;43.50;39.50;;;;;5.00;81.08;101760.47;5069712;28;48601;-77
2022/01/06 10:27:09;;;;;;;;;58.25;45.75;;;;;5.02;81.12;101757.72;5062584;28;45389;-77
2022/01/06 10:29:48;;;;;;;;;56.00;46.25;;;;;4.93;81.15;101739.03;5072416;28;45465;-76
2022/01/06 10:32:20;;;;;;;;;52.50;44.50;;;;;5.08;80.95;101759.91;5098999;27;45756;-76
2022/01/06 10:34:51;;;;;;;;;51.00;43.50;;;;;5.07;81.63;101750.34;5084454;28;46312;-75
2022/01/06 10:37:22;;;;;;;;;52.50;42.75;;;;;5.20;81.60;101752.09;5096053;27;45455;-77
2022/01/06 10:39:49;;;;;;;;;53.50;44.25;;;;;5.31;81.91;101760.03;5105356;27;45156;-75
2022/01/06 10:42:15;;;;;;;;;49.75;41.25;;;;;5.34;81.29;101756.31;5106321;27;47186;-75
2022/01/06 10:45:08;;;;;;;;;54.25;45.50;;;;;5.25;81.77;101747.28;5101634;27;45975;-75
2022/01/06 10:47:35;;;;;;;;;52.75;43.50;;;;;5.28;81.16;101763.72;5102839;27;45253;-75
2022/01/06 10:50:26;;;;;;;;;51.00;42.75;;;;;5.38;81.42;101748.06;5103232;27;45346;-75
2022/01/06 10:52:54;;;;;;;;;55.00;44.25;;;;;5.47;81.48;101748.31;5083140;27;45246;-77
2022/01/06 10:55:28;;;;;;;;;60.25;49.25;;;;;5.60;81.33;101762.25;5082499;28;45485;-76
2022/01/06 10:57:58;;;;;;;;;56.50;46.75;;;;;5.56;81.21;101756.38;5082492;28;45658;-76
2022/01/06 11:00:27;;;;;;;;;54.50;46.25;;;;;5.71;81.07;101757.97;5082558;28;45313;-76
2022/01/06 11:03:03;;;;;;;;;55.50;44.25;;;;;5.75;81.09;101749.69;5082187;28;45480;-76
2022/01/06 11:05:28;;;;;;;;;56.75;47.00;;;;;5.80;81.37;101734.38;5082170;28;46390;-77
2022/01/06 11:07:54;;;;;;;;;52.75;44.75;;;;;5.99;81.15;101740.84;5080699;28;45319;-77
2022/01/06 11:10:22;;;;;;;;;55.00;47.00;;;;;6.05;80.42;101737.75;5081182;28;45256;-76
2022/01/06 11:12:47;;;;;;;;;58.00;48.50;;;;;6.03;80.28;101723.81;5079989;28;45373;-76
2022/01/06 11:15:13;;;;;;;;;55.50;46.75;;;;;6.16;79.78;101739.56;5061685;28;46408;-76
2022/01/06 11:17:38;;;;;;;;;58.00;48.25;;;;;6.13;79.97;101734.53;5061863;28;45285;-75
2022/01/06 11:20:04;;;;;;;;;58.50;48.50;;;;;6.15;80.46;101732.63;5062179;28;45390;-76
2022/01/06 11:22:30;;;;;;;;;53.00;44.00;;;;;6.16;80.16;101717.59;5061857;28;45417;-76
2022/01/06 11:24:59;;;;;;;;;51.50;43.75;;;;;6.21;79.58;101717.22;5075808;28;47252;-75